<?xml version="1.0" encoding="utf-8"?>
<gpx xmlns:xsi="http://www.w3.org/2001/XMLSchema-instance" xmlns:xsd="http://www.w3.org/2001/XMLSchema" version="1.1" creator="Shapelink.com" xmlns="http://www.topografix.com/GPX/1/1" xmlns:gpxtpx="http://www.garmin.com/xmlschemas/TrackPointExtension/v1">
  <metadata>
    <name>Løping 4.08 km, 2012-09-11</name>
    <desc></desc>
    <author><name>Mikael Blom</name></author> 
    <time>2012-09-11T20:20:26Z</time>
  </metadata>
  <trk>
    <name>Løping 4.08 km, 2012-09-11</name>
    <trkseg>
      <trkpt lat="59.9788053" lon="17.7393766">
        <ele>34.2642</ele>
        <time>2012-09-11T20:20:26Z</time>
      </trkpt>
      <trkpt lat="59.9786833" lon="17.7393375">
        <ele>32.8223</ele>
        <time>2012-09-11T20:20:31Z</time>
      </trkpt>
      <trkpt lat="59.9785845" lon="17.7393284">
        <ele>34.7449</ele>
        <time>2012-09-11T20:20:34Z</time>
      </trkpt>
      <trkpt lat="59.9783857" lon="17.7393189">
        <ele>37.6287</ele>
        <time>2012-09-11T20:20:40Z</time>
      </trkpt>
      <trkpt lat="59.9782715" lon="17.7393057">
        <ele>40.0321</ele>
        <time>2012-09-11T20:20:44Z</time>
      </trkpt>
      <trkpt lat="59.9782166" lon="17.7392989">
        <ele>40.9934</ele>
        <time>2012-09-11T20:20:46Z</time>
      </trkpt>
      <trkpt lat="59.978085" lon="17.7393806">
        <ele>43.8773</ele>
        <time>2012-09-11T20:20:51Z</time>
      </trkpt>
      <trkpt lat="59.9779825" lon="17.7393485">
        <ele>45.3192</ele>
        <time>2012-09-11T20:20:55Z</time>
      </trkpt>
      <trkpt lat="59.9777878" lon="17.7393046">
        <ele>43.8773</ele>
        <time>2012-09-11T20:21:02Z</time>
      </trkpt>
      <trkpt lat="59.9776468" lon="17.73926">
        <ele>41.474</ele>
        <time>2012-09-11T20:21:07Z</time>
      </trkpt>
      <trkpt lat="59.977566" lon="17.739257">
        <ele>39.5513</ele>
        <time>2012-09-11T20:21:10Z</time>
      </trkpt>
      <trkpt lat="59.9774285" lon="17.7392968">
        <ele>38.5901</ele>
        <time>2012-09-11T20:21:15Z</time>
      </trkpt>
      <trkpt lat="59.9773275" lon="17.7393386">
        <ele>35.7061</ele>
        <time>2012-09-11T20:21:19Z</time>
      </trkpt>
      <trkpt lat="59.9773028" lon="17.7393471">
        <ele>35.7061</ele>
        <time>2012-09-11T20:21:20Z</time>
      </trkpt>
      <trkpt lat="59.9771943" lon="17.7394502">
        <ele>35.2255</ele>
        <time>2012-09-11T20:21:25Z</time>
      </trkpt>
      <trkpt lat="59.9770915" lon="17.7395522">
        <ele>32.8223</ele>
        <time>2012-09-11T20:21:30Z</time>
      </trkpt>
      <trkpt lat="59.9770021" lon="17.739693">
        <ele>28.4962</ele>
        <time>2012-09-11T20:21:35Z</time>
      </trkpt>
      <trkpt lat="59.9768655" lon="17.7397785">
        <ele>24.1703</ele>
        <time>2012-09-11T20:21:41Z</time>
      </trkpt>
      <trkpt lat="59.9767817" lon="17.7398107">
        <ele>20.325</ele>
        <time>2012-09-11T20:21:45Z</time>
      </trkpt>
      <trkpt lat="59.9766849" lon="17.7399194">
        <ele>16.9604</ele>
        <time>2012-09-11T20:21:49Z</time>
      </trkpt>
      <trkpt lat="59.9765962" lon="17.7400474">
        <ele>14.0764</ele>
        <time>2012-09-11T20:21:53Z</time>
      </trkpt>
      <trkpt lat="59.9765128" lon="17.7401558">
        <ele>14.557</ele>
        <time>2012-09-11T20:21:57Z</time>
      </trkpt>
      <trkpt lat="59.976419" lon="17.7402319">
        <ele>13.5958</ele>
        <time>2012-09-11T20:22:01Z</time>
      </trkpt>
      <trkpt lat="59.9762845" lon="17.7401914">
        <ele>18.8831</ele>
        <time>2012-09-11T20:22:06Z</time>
      </trkpt>
      <trkpt lat="59.9761752" lon="17.7400198">
        <ele>20.8057</ele>
        <time>2012-09-11T20:22:11Z</time>
      </trkpt>
      <trkpt lat="59.9760937" lon="17.7398757">
        <ele>21.767</ele>
        <time>2012-09-11T20:22:14Z</time>
      </trkpt>
      <trkpt lat="59.9758855" lon="17.7394326">
        <ele>24.1703</ele>
        <time>2012-09-11T20:22:21Z</time>
      </trkpt>
      <trkpt lat="59.9757653" lon="17.7391681">
        <ele>23.209</ele>
        <time>2012-09-11T20:22:26Z</time>
      </trkpt>
      <trkpt lat="59.9756648" lon="17.7389389">
        <ele>22.2476</ele>
        <time>2012-09-11T20:22:31Z</time>
      </trkpt>
      <trkpt lat="59.9755664" lon="17.7387387">
        <ele>21.767</ele>
        <time>2012-09-11T20:22:36Z</time>
      </trkpt>
      <trkpt lat="59.975467" lon="17.7385616">
        <ele>20.325</ele>
        <time>2012-09-11T20:22:41Z</time>
      </trkpt>
      <trkpt lat="59.9753839" lon="17.738412">
        <ele>20.325</ele>
        <time>2012-09-11T20:22:46Z</time>
      </trkpt>
      <trkpt lat="59.9753265" lon="17.7383038">
        <ele>21.2864</ele>
        <time>2012-09-11T20:22:49Z</time>
      </trkpt>
      <trkpt lat="59.9752582" lon="17.7381322">
        <ele>21.2864</ele>
        <time>2012-09-11T20:22:54Z</time>
      </trkpt>
      <trkpt lat="59.9752259" lon="17.7380603">
        <ele>21.2864</ele>
        <time>2012-09-11T20:22:56Z</time>
      </trkpt>
      <trkpt lat="59.9751303" lon="17.7378638">
        <ele>20.325</ele>
        <time>2012-09-11T20:23:01Z</time>
      </trkpt>
      <trkpt lat="59.975028" lon="17.7376742">
        <ele>19.8444</ele>
        <time>2012-09-11T20:23:06Z</time>
      </trkpt>
      <trkpt lat="59.9748765" lon="17.737438">
        <ele>21.2864</ele>
        <time>2012-09-11T20:23:13Z</time>
      </trkpt>
      <trkpt lat="59.9748127" lon="17.7373173">
        <ele>23.6896</ele>
        <time>2012-09-11T20:23:16Z</time>
      </trkpt>
      <trkpt lat="59.9747376" lon="17.7371238">
        <ele>23.6896</ele>
        <time>2012-09-11T20:23:20Z</time>
      </trkpt>
      <trkpt lat="59.974649" lon="17.7369291">
        <ele>26.0929</ele>
        <time>2012-09-11T20:23:25Z</time>
      </trkpt>
      <trkpt lat="59.9745727" lon="17.7367378">
        <ele>26.5736</ele>
        <time>2012-09-11T20:23:29Z</time>
      </trkpt>
      <trkpt lat="59.9745377" lon="17.736634">
        <ele>27.0543</ele>
        <time>2012-09-11T20:23:31Z</time>
      </trkpt>
      <trkpt lat="59.974503" lon="17.7364712">
        <ele>27.0543</ele>
        <time>2012-09-11T20:23:34Z</time>
      </trkpt>
      <trkpt lat="59.9744561" lon="17.7361994">
        <ele>25.6123</ele>
        <time>2012-09-11T20:23:39Z</time>
      </trkpt>
      <trkpt lat="59.9744081" lon="17.7359817">
        <ele>25.1317</ele>
        <time>2012-09-11T20:23:43Z</time>
      </trkpt>
      <trkpt lat="59.974392" lon="17.7359451">
        <ele>24.651</ele>
        <time>2012-09-11T20:23:44Z</time>
      </trkpt>
      <trkpt lat="59.9743342" lon="17.7357146">
        <ele>24.1703</ele>
        <time>2012-09-11T20:23:49Z</time>
      </trkpt>
      <trkpt lat="59.9743288" lon="17.7356645">
        <ele>23.6896</ele>
        <time>2012-09-11T20:23:50Z</time>
      </trkpt>
      <trkpt lat="59.9743071" lon="17.7354003">
        <ele>22.2476</ele>
        <time>2012-09-11T20:23:55Z</time>
      </trkpt>
      <trkpt lat="59.9742878" lon="17.7352041">
        <ele>22.7283</ele>
        <time>2012-09-11T20:23:59Z</time>
      </trkpt>
      <trkpt lat="59.9742797" lon="17.7349662">
        <ele>22.2476</ele>
        <time>2012-09-11T20:24:03Z</time>
      </trkpt>
      <trkpt lat="59.9742491" lon="17.7347576">
        <ele>22.2476</ele>
        <time>2012-09-11T20:24:07Z</time>
      </trkpt>
      <trkpt lat="59.9742609" lon="17.7344747">
        <ele>21.767</ele>
        <time>2012-09-11T20:24:12Z</time>
      </trkpt>
      <trkpt lat="59.9742681" lon="17.7341819">
        <ele>22.2476</ele>
        <time>2012-09-11T20:24:17Z</time>
      </trkpt>
      <trkpt lat="59.9742797" lon="17.7338876">
        <ele>21.767</ele>
        <time>2012-09-11T20:24:22Z</time>
      </trkpt>
      <trkpt lat="59.9742818" lon="17.7336437">
        <ele>23.209</ele>
        <time>2012-09-11T20:24:26Z</time>
      </trkpt>
      <trkpt lat="59.9743035" lon="17.733441">
        <ele>24.1703</ele>
        <time>2012-09-11T20:24:30Z</time>
      </trkpt>
      <trkpt lat="59.9743052" lon="17.7333823">
        <ele>24.651</ele>
        <time>2012-09-11T20:24:31Z</time>
      </trkpt>
      <trkpt lat="59.9743175" lon="17.733104">
        <ele>24.1703</ele>
        <time>2012-09-11T20:24:36Z</time>
      </trkpt>
      <trkpt lat="59.9743247" lon="17.7328759">
        <ele>24.1703</ele>
        <time>2012-09-11T20:24:40Z</time>
      </trkpt>
      <trkpt lat="59.9743325" lon="17.732654">
        <ele>24.1703</ele>
        <time>2012-09-11T20:24:44Z</time>
      </trkpt>
      <trkpt lat="59.9743294" lon="17.7324715">
        <ele>24.1703</ele>
        <time>2012-09-11T20:24:47Z</time>
      </trkpt>
      <trkpt lat="59.9743211" lon="17.732212">
        <ele>24.1703</ele>
        <time>2012-09-11T20:24:52Z</time>
      </trkpt>
      <trkpt lat="59.974314" lon="17.7320524">
        <ele>25.1317</ele>
        <time>2012-09-11T20:24:55Z</time>
      </trkpt>
      <trkpt lat="59.9743114" lon="17.7317335">
        <ele>27.0543</ele>
        <time>2012-09-11T20:25:01Z</time>
      </trkpt>
      <trkpt lat="59.9743258" lon="17.7315467">
        <ele>28.4962</ele>
        <time>2012-09-11T20:25:05Z</time>
      </trkpt>
      <trkpt lat="59.9743258" lon="17.7312862">
        <ele>29.9381</ele>
        <time>2012-09-11T20:25:10Z</time>
      </trkpt>
      <trkpt lat="59.9743352" lon="17.7310728">
        <ele>30.4188</ele>
        <time>2012-09-11T20:25:14Z</time>
      </trkpt>
      <trkpt lat="59.974331" lon="17.7309359">
        <ele>30.8995</ele>
        <time>2012-09-11T20:25:16Z</time>
      </trkpt>
      <trkpt lat="59.9743728" lon="17.7305995">
        <ele>29.4575</ele>
        <time>2012-09-11T20:25:23Z</time>
      </trkpt>
      <trkpt lat="59.9744071" lon="17.7303083">
        <ele>28.4962</ele>
        <time>2012-09-11T20:25:29Z</time>
      </trkpt>
      <trkpt lat="59.9744197" lon="17.7302239">
        <ele>28.4962</ele>
        <time>2012-09-11T20:25:31Z</time>
      </trkpt>
      <trkpt lat="59.9744461" lon="17.7300476">
        <ele>28.4962</ele>
        <time>2012-09-11T20:25:35Z</time>
      </trkpt>
      <trkpt lat="59.9744569" lon="17.7298996">
        <ele>28.4962</ele>
        <time>2012-09-11T20:25:38Z</time>
      </trkpt>
      <trkpt lat="59.9744784" lon="17.7296191">
        <ele>28.4962</ele>
        <time>2012-09-11T20:25:43Z</time>
      </trkpt>
      <trkpt lat="59.9744935" lon="17.7294329">
        <ele>28.0155</ele>
        <time>2012-09-11T20:25:47Z</time>
      </trkpt>
      <trkpt lat="59.9745014" lon="17.7292433">
        <ele>28.0155</ele>
        <time>2012-09-11T20:25:51Z</time>
      </trkpt>
      <trkpt lat="59.9744972" lon="17.7290184">
        <ele>28.0155</ele>
        <time>2012-09-11T20:25:55Z</time>
      </trkpt>
      <trkpt lat="59.9744776" lon="17.7287703">
        <ele>29.9381</ele>
        <time>2012-09-11T20:25:59Z</time>
      </trkpt>
      <trkpt lat="59.9744713" lon="17.7285624">
        <ele>29.9381</ele>
        <time>2012-09-11T20:26:03Z</time>
      </trkpt>
      <trkpt lat="59.9744673" lon="17.7283559">
        <ele>29.9381</ele>
        <time>2012-09-11T20:26:07Z</time>
      </trkpt>
      <trkpt lat="59.9744611" lon="17.7282471">
        <ele>29.9381</ele>
        <time>2012-09-11T20:26:09Z</time>
      </trkpt>
      <trkpt lat="59.9744558" lon="17.7279936">
        <ele>30.8995</ele>
        <time>2012-09-11T20:26:14Z</time>
      </trkpt>
      <trkpt lat="59.9744531" lon="17.7277819">
        <ele>31.3801</ele>
        <time>2012-09-11T20:26:18Z</time>
      </trkpt>
      <trkpt lat="59.9744606" lon="17.7276023">
        <ele>32.8223</ele>
        <time>2012-09-11T20:26:22Z</time>
      </trkpt>
      <trkpt lat="59.974447" lon="17.727344">
        <ele>33.3029</ele>
        <time>2012-09-11T20:26:27Z</time>
      </trkpt>
      <trkpt lat="59.9744381" lon="17.7270973">
        <ele>32.8223</ele>
        <time>2012-09-11T20:26:31Z</time>
      </trkpt>
      <trkpt lat="59.9744297" lon="17.726948">
        <ele>33.3029</ele>
        <time>2012-09-11T20:26:34Z</time>
      </trkpt>
      <trkpt lat="59.9744175" lon="17.7267598">
        <ele>33.7834</ele>
        <time>2012-09-11T20:26:38Z</time>
      </trkpt>
      <trkpt lat="59.9743999" lon="17.726494">
        <ele>34.7449</ele>
        <time>2012-09-11T20:26:43Z</time>
      </trkpt>
      <trkpt lat="59.9743905" lon="17.7263567">
        <ele>35.2255</ele>
        <time>2012-09-11T20:26:47Z</time>
      </trkpt>
      <trkpt lat="59.9743854" lon="17.7262736">
        <ele>34.7449</ele>
        <time>2012-09-11T20:26:49Z</time>
      </trkpt>
      <trkpt lat="59.9743732" lon="17.7258937">
        <ele>31.8607</ele>
        <time>2012-09-11T20:26:57Z</time>
      </trkpt>
      <trkpt lat="59.9743553" lon="17.725661">
        <ele>31.3801</ele>
        <time>2012-09-11T20:27:02Z</time>
      </trkpt>
      <trkpt lat="59.9743337" lon="17.7253656">
        <ele>29.9381</ele>
        <time>2012-09-11T20:27:08Z</time>
      </trkpt>
      <trkpt lat="59.9742997" lon="17.7251166">
        <ele>29.9381</ele>
        <time>2012-09-11T20:27:13Z</time>
      </trkpt>
      <trkpt lat="59.9742636" lon="17.7248677">
        <ele>29.9381</ele>
        <time>2012-09-11T20:27:18Z</time>
      </trkpt>
      <trkpt lat="59.9742373" lon="17.7246354">
        <ele>30.4188</ele>
        <time>2012-09-11T20:27:23Z</time>
      </trkpt>
      <trkpt lat="59.9741963" lon="17.7243891">
        <ele>30.8995</ele>
        <time>2012-09-11T20:27:28Z</time>
      </trkpt>
      <trkpt lat="59.9741507" lon="17.7241036">
        <ele>31.8607</ele>
        <time>2012-09-11T20:27:34Z</time>
      </trkpt>
      <trkpt lat="59.9741057" lon="17.7238326">
        <ele>31.3801</ele>
        <time>2012-09-11T20:27:40Z</time>
      </trkpt>
      <trkpt lat="59.9740733" lon="17.7236426">
        <ele>31.8607</ele>
        <time>2012-09-11T20:27:44Z</time>
      </trkpt>
      <trkpt lat="59.9740365" lon="17.7233675">
        <ele>31.3801</ele>
        <time>2012-09-11T20:27:50Z</time>
      </trkpt>
      <trkpt lat="59.9739718" lon="17.7231019">
        <ele>31.3801</ele>
        <time>2012-09-11T20:27:56Z</time>
      </trkpt>
      <trkpt lat="59.9739207" lon="17.7228858">
        <ele>31.8607</ele>
        <time>2012-09-11T20:28:01Z</time>
      </trkpt>
      <trkpt lat="59.9738679" lon="17.7227003">
        <ele>31.8607</ele>
        <time>2012-09-11T20:28:05Z</time>
      </trkpt>
      <trkpt lat="59.9738063" lon="17.7224439">
        <ele>32.3416</ele>
        <time>2012-09-11T20:28:11Z</time>
      </trkpt>
      <trkpt lat="59.9737437" lon="17.7222703">
        <ele>33.7834</ele>
        <time>2012-09-11T20:28:15Z</time>
      </trkpt>
      <trkpt lat="59.9736838" lon="17.7221182">
        <ele>34.2642</ele>
        <time>2012-09-11T20:28:19Z</time>
      </trkpt>
      <trkpt lat="59.9736109" lon="17.7219381">
        <ele>33.7834</ele>
        <time>2012-09-11T20:28:24Z</time>
      </trkpt>
      <trkpt lat="59.9735305" lon="17.7217425">
        <ele>34.7449</ele>
        <time>2012-09-11T20:28:29Z</time>
      </trkpt>
      <trkpt lat="59.9734613" lon="17.7215922">
        <ele>35.7061</ele>
        <time>2012-09-11T20:28:33Z</time>
      </trkpt>
      <trkpt lat="59.9733825" lon="17.7214507">
        <ele>36.1868</ele>
        <time>2012-09-11T20:28:37Z</time>
      </trkpt>
      <trkpt lat="59.9732912" lon="17.7212841">
        <ele>36.1868</ele>
        <time>2012-09-11T20:28:42Z</time>
      </trkpt>
      <trkpt lat="59.9732177" lon="17.7211634">
        <ele>36.6675</ele>
        <time>2012-09-11T20:28:46Z</time>
      </trkpt>
      <trkpt lat="59.9731814" lon="17.7210987">
        <ele>36.1868</ele>
        <time>2012-09-11T20:28:48Z</time>
      </trkpt>
      <trkpt lat="59.973064" lon="17.720925">
        <ele>37.1481</ele>
        <time>2012-09-11T20:28:54Z</time>
      </trkpt>
      <trkpt lat="59.9729772" lon="17.7207976">
        <ele>38.1094</ele>
        <time>2012-09-11T20:28:58Z</time>
      </trkpt>
      <trkpt lat="59.9728753" lon="17.7206752">
        <ele>38.1094</ele>
        <time>2012-09-11T20:29:03Z</time>
      </trkpt>
      <trkpt lat="59.972853" lon="17.7206562">
        <ele>38.1094</ele>
        <time>2012-09-11T20:29:04Z</time>
      </trkpt>
      <trkpt lat="59.9727884" lon="17.7205827">
        <ele>38.5901</ele>
        <time>2012-09-11T20:29:07Z</time>
      </trkpt>
      <trkpt lat="59.9727023" lon="17.7205017">
        <ele>40.5128</ele>
        <time>2012-09-11T20:29:11Z</time>
      </trkpt>
      <trkpt lat="59.9725893" lon="17.7204121">
        <ele>41.9547</ele>
        <time>2012-09-11T20:29:16Z</time>
      </trkpt>
      <trkpt lat="59.9725667" lon="17.7203795">
        <ele>42.4354</ele>
        <time>2012-09-11T20:29:17Z</time>
      </trkpt>
      <trkpt lat="59.9724755" lon="17.7203022">
        <ele>42.916</ele>
        <time>2012-09-11T20:29:21Z</time>
      </trkpt>
      <trkpt lat="59.9723756" lon="17.7202117">
        <ele>42.4354</ele>
        <time>2012-09-11T20:29:25Z</time>
      </trkpt>
      <trkpt lat="59.9722631" lon="17.7201288">
        <ele>43.8773</ele>
        <time>2012-09-11T20:29:30Z</time>
      </trkpt>
      <trkpt lat="59.972145" lon="17.7200211">
        <ele>44.358</ele>
        <time>2012-09-11T20:29:35Z</time>
      </trkpt>
      <trkpt lat="59.9720339" lon="17.7199086">
        <ele>43.8773</ele>
        <time>2012-09-11T20:29:40Z</time>
      </trkpt>
      <trkpt lat="59.9719284" lon="17.7198031">
        <ele>43.3966</ele>
        <time>2012-09-11T20:29:45Z</time>
      </trkpt>
      <trkpt lat="59.971906" lon="17.7197834">
        <ele>43.3966</ele>
        <time>2012-09-11T20:29:46Z</time>
      </trkpt>
      <trkpt lat="59.9717599" lon="17.7196346">
        <ele>42.4354</ele>
        <time>2012-09-11T20:29:53Z</time>
      </trkpt>
      <trkpt lat="59.971646" lon="17.7195249">
        <ele>40.9934</ele>
        <time>2012-09-11T20:29:58Z</time>
      </trkpt>
      <trkpt lat="59.971556" lon="17.7194305">
        <ele>40.9934</ele>
        <time>2012-09-11T20:30:02Z</time>
      </trkpt>
      <trkpt lat="59.9715036" lon="17.719398">
        <ele>40.5128</ele>
        <time>2012-09-11T20:30:04Z</time>
      </trkpt>
      <trkpt lat="59.9713913" lon="17.719269">
        <ele>40.0321</ele>
        <time>2012-09-11T20:30:09Z</time>
      </trkpt>
      <trkpt lat="59.9712802" lon="17.7191555">
        <ele>41.474</ele>
        <time>2012-09-11T20:30:14Z</time>
      </trkpt>
      <trkpt lat="59.9711684" lon="17.7190354">
        <ele>42.4354</ele>
        <time>2012-09-11T20:30:19Z</time>
      </trkpt>
      <trkpt lat="59.9710514" lon="17.7189245">
        <ele>42.4354</ele>
        <time>2012-09-11T20:30:24Z</time>
      </trkpt>
      <trkpt lat="59.9709402" lon="17.7188171">
        <ele>42.4354</ele>
        <time>2012-09-11T20:30:29Z</time>
      </trkpt>
      <trkpt lat="59.9708732" lon="17.7187608">
        <ele>42.916</ele>
        <time>2012-09-11T20:30:32Z</time>
      </trkpt>
      <trkpt lat="59.9707668" lon="17.7186448">
        <ele>42.4354</ele>
        <time>2012-09-11T20:30:37Z</time>
      </trkpt>
      <trkpt lat="59.9706572" lon="17.7185479">
        <ele>41.9547</ele>
        <time>2012-09-11T20:30:42Z</time>
      </trkpt>
      <trkpt lat="59.9705221" lon="17.7184322">
        <ele>41.474</ele>
        <time>2012-09-11T20:30:48Z</time>
      </trkpt>
      <trkpt lat="59.9704158" lon="17.7183432">
        <ele>39.5513</ele>
        <time>2012-09-11T20:30:53Z</time>
      </trkpt>
      <trkpt lat="59.9703189" lon="17.7182651">
        <ele>39.0707</ele>
        <time>2012-09-11T20:30:57Z</time>
      </trkpt>
      <trkpt lat="59.9702557" lon="17.7182019">
        <ele>39.0707</ele>
        <time>2012-09-11T20:31:00Z</time>
      </trkpt>
      <trkpt lat="59.9701629" lon="17.7181485">
        <ele>39.0707</ele>
        <time>2012-09-11T20:31:04Z</time>
      </trkpt>
      <trkpt lat="59.9701009" lon="17.7180967">
        <ele>38.1094</ele>
        <time>2012-09-11T20:31:07Z</time>
      </trkpt>
      <trkpt lat="59.9699957" lon="17.7179957">
        <ele>38.5901</ele>
        <time>2012-09-11T20:31:12Z</time>
      </trkpt>
      <trkpt lat="59.9698968" lon="17.7179144">
        <ele>37.1481</ele>
        <time>2012-09-11T20:31:17Z</time>
      </trkpt>
      <trkpt lat="59.9697956" lon="17.7178279">
        <ele>36.6675</ele>
        <time>2012-09-11T20:31:22Z</time>
      </trkpt>
      <trkpt lat="59.969645" lon="17.7176832">
        <ele>35.7061</ele>
        <time>2012-09-11T20:31:29Z</time>
      </trkpt>
      <trkpt lat="59.9695083" lon="17.7175813">
        <ele>34.2642</ele>
        <time>2012-09-11T20:31:35Z</time>
      </trkpt>
      <trkpt lat="59.969399" lon="17.7175162">
        <ele>33.7834</ele>
        <time>2012-09-11T20:31:40Z</time>
      </trkpt>
      <trkpt lat="59.9692849" lon="17.7174858">
        <ele>33.3029</ele>
        <time>2012-09-11T20:31:45Z</time>
      </trkpt>
      <trkpt lat="59.9691441" lon="17.7174389">
        <ele>33.7834</ele>
        <time>2012-09-11T20:31:51Z</time>
      </trkpt>
      <trkpt lat="59.9690483" lon="17.7174099">
        <ele>34.2642</ele>
        <time>2012-09-11T20:31:55Z</time>
      </trkpt>
      <trkpt lat="59.9689312" lon="17.7173747">
        <ele>34.7449</ele>
        <time>2012-09-11T20:32:00Z</time>
      </trkpt>
      <trkpt lat="59.9687971" lon="17.7173253">
        <ele>35.2255</ele>
        <time>2012-09-11T20:32:06Z</time>
      </trkpt>
      <trkpt lat="59.9687686" lon="17.7173223">
        <ele>35.2255</ele>
        <time>2012-09-11T20:32:07Z</time>
      </trkpt>
      <trkpt lat="59.9687411" lon="17.717318">
        <ele>34.2642</ele>
        <time>2012-09-11T20:32:08Z</time>
      </trkpt>
      <trkpt lat="59.9687976" lon="17.7172286">
        <ele>31.3801</ele>
        <time>2012-09-11T20:32:12Z</time>
      </trkpt>
      <trkpt lat="59.9689012" lon="17.7172492">
        <ele>29.9381</ele>
        <time>2012-09-11T20:32:16Z</time>
      </trkpt>
      <trkpt lat="59.9689313" lon="17.7172551">
        <ele>29.9381</ele>
        <time>2012-09-11T20:32:17Z</time>
      </trkpt>
      <trkpt lat="59.9691245" lon="17.7173071">
        <ele>31.8607</ele>
        <time>2012-09-11T20:32:24Z</time>
      </trkpt>
      <trkpt lat="59.9692258" lon="17.7173539">
        <ele>31.8607</ele>
        <time>2012-09-11T20:32:28Z</time>
      </trkpt>
      <trkpt lat="59.969358" lon="17.7174067">
        <ele>31.3801</ele>
        <time>2012-09-11T20:32:33Z</time>
      </trkpt>
      <trkpt lat="59.9694323" lon="17.7174366">
        <ele>31.3801</ele>
        <time>2012-09-11T20:32:36Z</time>
      </trkpt>
      <trkpt lat="59.9695508" lon="17.7175177">
        <ele>31.3801</ele>
        <time>2012-09-11T20:32:41Z</time>
      </trkpt>
      <trkpt lat="59.9696223" lon="17.7175756">
        <ele>30.8995</ele>
        <time>2012-09-11T20:32:44Z</time>
      </trkpt>
      <trkpt lat="59.9697786" lon="17.7176904">
        <ele>30.8995</ele>
        <time>2012-09-11T20:32:50Z</time>
      </trkpt>
      <trkpt lat="59.9699464" lon="17.7178124">
        <ele>28.4962</ele>
        <time>2012-09-11T20:32:57Z</time>
      </trkpt>
      <trkpt lat="59.9700858" lon="17.7179383">
        <ele>26.5736</ele>
        <time>2012-09-11T20:33:03Z</time>
      </trkpt>
      <trkpt lat="59.9702439" lon="17.7180872">
        <ele>25.1317</ele>
        <time>2012-09-11T20:33:10Z</time>
      </trkpt>
      <trkpt lat="59.9703625" lon="17.7181843">
        <ele>24.1703</ele>
        <time>2012-09-11T20:33:15Z</time>
      </trkpt>
      <trkpt lat="59.9704871" lon="17.7182851">
        <ele>24.1703</ele>
        <time>2012-09-11T20:33:20Z</time>
      </trkpt>
      <trkpt lat="59.9706263" lon="17.7184002">
        <ele>22.7283</ele>
        <time>2012-09-11T20:33:26Z</time>
      </trkpt>
      <trkpt lat="59.9707466" lon="17.7185118">
        <ele>21.767</ele>
        <time>2012-09-11T20:33:31Z</time>
      </trkpt>
      <trkpt lat="59.9708757" lon="17.7186537">
        <ele>21.2864</ele>
        <time>2012-09-11T20:33:37Z</time>
      </trkpt>
      <trkpt lat="59.9710122" lon="17.7187808">
        <ele>21.767</ele>
        <time>2012-09-11T20:33:43Z</time>
      </trkpt>
      <trkpt lat="59.9710571" lon="17.718848">
        <ele>22.2476</ele>
        <time>2012-09-11T20:33:45Z</time>
      </trkpt>
      <trkpt lat="59.9711828" lon="17.7189995">
        <ele>22.7283</ele>
        <time>2012-09-11T20:33:51Z</time>
      </trkpt>
      <trkpt lat="59.9713142" lon="17.7191276">
        <ele>23.6896</ele>
        <time>2012-09-11T20:33:57Z</time>
      </trkpt>
      <trkpt lat="59.9714227" lon="17.7192429">
        <ele>23.209</ele>
        <time>2012-09-11T20:34:02Z</time>
      </trkpt>
      <trkpt lat="59.9715606" lon="17.7193649">
        <ele>21.2864</ele>
        <time>2012-09-11T20:34:08Z</time>
      </trkpt>
      <trkpt lat="59.971699" lon="17.7194696">
        <ele>20.8057</ele>
        <time>2012-09-11T20:34:14Z</time>
      </trkpt>
      <trkpt lat="59.971831" lon="17.7195975">
        <ele>20.325</ele>
        <time>2012-09-11T20:34:20Z</time>
      </trkpt>
      <trkpt lat="59.9719381" lon="17.7197014">
        <ele>19.8444</ele>
        <time>2012-09-11T20:34:25Z</time>
      </trkpt>
      <trkpt lat="59.972061" lon="17.7198109">
        <ele>19.8444</ele>
        <time>2012-09-11T20:34:31Z</time>
      </trkpt>
      <trkpt lat="59.9721776" lon="17.7198861">
        <ele>20.325</ele>
        <time>2012-09-11T20:34:36Z</time>
      </trkpt>
      <trkpt lat="59.9722983" lon="17.7199942">
        <ele>20.8057</ele>
        <time>2012-09-11T20:34:41Z</time>
      </trkpt>
      <trkpt lat="59.9723991" lon="17.7200839">
        <ele>20.325</ele>
        <time>2012-09-11T20:34:45Z</time>
      </trkpt>
      <trkpt lat="59.9725387" lon="17.7202159">
        <ele>18.8831</ele>
        <time>2012-09-11T20:34:51Z</time>
      </trkpt>
      <trkpt lat="59.9726977" lon="17.7203665">
        <ele>19.3638</ele>
        <time>2012-09-11T20:34:58Z</time>
      </trkpt>
      <trkpt lat="59.972812" lon="17.7204879">
        <ele>19.3638</ele>
        <time>2012-09-11T20:35:03Z</time>
      </trkpt>
      <trkpt lat="59.9729239" lon="17.7206334">
        <ele>18.4023</ele>
        <time>2012-09-11T20:35:08Z</time>
      </trkpt>
      <trkpt lat="59.9730307" lon="17.7207743">
        <ele>18.4023</ele>
        <time>2012-09-11T20:35:13Z</time>
      </trkpt>
      <trkpt lat="59.9731692" lon="17.7209739">
        <ele>18.4023</ele>
        <time>2012-09-11T20:35:20Z</time>
      </trkpt>
      <trkpt lat="59.9732868" lon="17.7211546">
        <ele>18.8831</ele>
        <time>2012-09-11T20:35:26Z</time>
      </trkpt>
      <trkpt lat="59.9733685" lon="17.7212908">
        <ele>19.8444</ele>
        <time>2012-09-11T20:35:30Z</time>
      </trkpt>
      <trkpt lat="59.9734934" lon="17.7215321">
        <ele>20.325</ele>
        <time>2012-09-11T20:35:37Z</time>
      </trkpt>
      <trkpt lat="59.9735999" lon="17.7217534">
        <ele>20.8057</ele>
        <time>2012-09-11T20:35:43Z</time>
      </trkpt>
      <trkpt lat="59.9736916" lon="17.7219762">
        <ele>20.8057</ele>
        <time>2012-09-11T20:35:49Z</time>
      </trkpt>
      <trkpt lat="59.9737679" lon="17.7222158">
        <ele>19.3638</ele>
        <time>2012-09-11T20:35:55Z</time>
      </trkpt>
      <trkpt lat="59.9738822" lon="17.7225193">
        <ele>23.209</ele>
        <time>2012-09-11T20:36:03Z</time>
      </trkpt>
      <trkpt lat="59.9739586" lon="17.7227748">
        <ele>25.6123</ele>
        <time>2012-09-11T20:36:09Z</time>
      </trkpt>
      <trkpt lat="59.9740218" lon="17.7230334">
        <ele>26.0929</ele>
        <time>2012-09-11T20:36:15Z</time>
      </trkpt>
      <trkpt lat="59.9740797" lon="17.7232948">
        <ele>26.5736</ele>
        <time>2012-09-11T20:36:21Z</time>
      </trkpt>
      <trkpt lat="59.9741352" lon="17.7236032">
        <ele>28.0155</ele>
        <time>2012-09-11T20:36:28Z</time>
      </trkpt>
      <trkpt lat="59.9741822" lon="17.7238828">
        <ele>29.4575</ele>
        <time>2012-09-11T20:36:34Z</time>
      </trkpt>
      <trkpt lat="59.9742257" lon="17.7241594">
        <ele>29.9381</ele>
        <time>2012-09-11T20:36:40Z</time>
      </trkpt>
      <trkpt lat="59.9742678" lon="17.7244271">
        <ele>31.3801</ele>
        <time>2012-09-11T20:36:46Z</time>
      </trkpt>
      <trkpt lat="59.9743061" lon="17.7246509">
        <ele>32.3416</ele>
        <time>2012-09-11T20:36:51Z</time>
      </trkpt>
      <trkpt lat="59.9743501" lon="17.7249172">
        <ele>33.7834</ele>
        <time>2012-09-11T20:36:57Z</time>
      </trkpt>
      <trkpt lat="59.9743997" lon="17.7252353">
        <ele>34.2642</ele>
        <time>2012-09-11T20:37:04Z</time>
      </trkpt>
      <trkpt lat="59.9744247" lon="17.7254673">
        <ele>34.7449</ele>
        <time>2012-09-11T20:37:09Z</time>
      </trkpt>
      <trkpt lat="59.9744329" lon="17.7257494">
        <ele>32.8223</ele>
        <time>2012-09-11T20:37:15Z</time>
      </trkpt>
      <trkpt lat="59.9744459" lon="17.72603">
        <ele>31.3801</ele>
        <time>2012-09-11T20:37:21Z</time>
      </trkpt>
      <trkpt lat="59.9744473" lon="17.726215">
        <ele>30.4188</ele>
        <time>2012-09-11T20:37:25Z</time>
      </trkpt>
      <trkpt lat="59.974446" lon="17.7265118">
        <ele>28.4962</ele>
        <time>2012-09-11T20:37:31Z</time>
      </trkpt>
      <trkpt lat="59.974453" lon="17.7267602">
        <ele>28.0155</ele>
        <time>2012-09-11T20:37:36Z</time>
      </trkpt>
      <trkpt lat="59.974444" lon="17.7270591">
        <ele>27.5349</ele>
        <time>2012-09-11T20:37:42Z</time>
      </trkpt>
      <trkpt lat="59.9744426" lon="17.7273071">
        <ele>27.5349</ele>
        <time>2012-09-11T20:37:47Z</time>
      </trkpt>
      <trkpt lat="59.9744442" lon="17.727595">
        <ele>27.0543</ele>
        <time>2012-09-11T20:37:53Z</time>
      </trkpt>
      <trkpt lat="59.9744452" lon="17.7278068">
        <ele>25.1317</ele>
        <time>2012-09-11T20:37:57Z</time>
      </trkpt>
      <trkpt lat="59.9744435" lon="17.7280202">
        <ele>24.651</ele>
        <time>2012-09-11T20:38:01Z</time>
      </trkpt>
      <trkpt lat="59.9744362" lon="17.7282161">
        <ele>24.1703</ele>
        <time>2012-09-11T20:38:05Z</time>
      </trkpt>
      <trkpt lat="59.9744359" lon="17.7284863">
        <ele>23.209</ele>
        <time>2012-09-11T20:38:10Z</time>
      </trkpt>
      <trkpt lat="59.9744385" lon="17.7286924">
        <ele>22.7283</ele>
        <time>2012-09-11T20:38:14Z</time>
      </trkpt>
      <trkpt lat="59.9744419" lon="17.7289091">
        <ele>21.767</ele>
        <time>2012-09-11T20:38:18Z</time>
      </trkpt>
      <trkpt lat="59.9744504" lon="17.7290678">
        <ele>22.2476</ele>
        <time>2012-09-11T20:38:21Z</time>
      </trkpt>
      <trkpt lat="59.9744636" lon="17.729165">
        <ele>22.7283</ele>
        <time>2012-09-11T20:38:23Z</time>
      </trkpt>
      <trkpt lat="59.9744794" lon="17.7294883">
        <ele>23.6896</ele>
        <time>2012-09-11T20:38:30Z</time>
      </trkpt>
      <trkpt lat="59.9744776" lon="17.7297435">
        <ele>25.6123</ele>
        <time>2012-09-11T20:38:35Z</time>
      </trkpt>
      <trkpt lat="59.9744666" lon="17.7300404">
        <ele>27.5349</ele>
        <time>2012-09-11T20:38:41Z</time>
      </trkpt>
      <trkpt lat="59.9744572" lon="17.7302813">
        <ele>29.4575</ele>
        <time>2012-09-11T20:38:46Z</time>
      </trkpt>
      <trkpt lat="59.9744401" lon="17.7305664">
        <ele>30.8995</ele>
        <time>2012-09-11T20:38:52Z</time>
      </trkpt>
      <trkpt lat="59.9744268" lon="17.7307632">
        <ele>31.8607</ele>
        <time>2012-09-11T20:38:56Z</time>
      </trkpt>
      <trkpt lat="59.9744131" lon="17.7310248">
        <ele>33.3029</ele>
        <time>2012-09-11T20:39:01Z</time>
      </trkpt>
      <trkpt lat="59.9744004" lon="17.7313703">
        <ele>33.7834</ele>
        <time>2012-09-11T20:39:08Z</time>
      </trkpt>
      <trkpt lat="59.9743968" lon="17.7317106">
        <ele>33.7834</ele>
        <time>2012-09-11T20:39:15Z</time>
      </trkpt>
      <trkpt lat="59.9743932" lon="17.7319987">
        <ele>33.7834</ele>
        <time>2012-09-11T20:39:21Z</time>
      </trkpt>
      <trkpt lat="59.974395" lon="17.7322986">
        <ele>33.3029</ele>
        <time>2012-09-11T20:39:27Z</time>
      </trkpt>
      <trkpt lat="59.9744046" lon="17.7325466">
        <ele>34.2642</ele>
        <time>2012-09-11T20:39:32Z</time>
      </trkpt>
      <trkpt lat="59.9744147" lon="17.7328516">
        <ele>35.7061</ele>
        <time>2012-09-11T20:39:38Z</time>
      </trkpt>
      <trkpt lat="59.974421" lon="17.7331997">
        <ele>38.1094</ele>
        <time>2012-09-11T20:39:45Z</time>
      </trkpt>
      <trkpt lat="59.9744174" lon="17.733479">
        <ele>38.5901</ele>
        <time>2012-09-11T20:39:51Z</time>
      </trkpt>
      <trkpt lat="59.9744061" lon="17.7337624">
        <ele>38.5901</ele>
        <time>2012-09-11T20:39:57Z</time>
      </trkpt>
      <trkpt lat="59.9743938" lon="17.7340922">
        <ele>40.5128</ele>
        <time>2012-09-11T20:40:04Z</time>
      </trkpt>
      <trkpt lat="59.9743849" lon="17.7343214">
        <ele>40.9934</ele>
        <time>2012-09-11T20:40:09Z</time>
      </trkpt>
      <trkpt lat="59.9743925" lon="17.7345596">
        <ele>42.916</ele>
        <time>2012-09-11T20:40:14Z</time>
      </trkpt>
      <trkpt lat="59.9743971" lon="17.7347927">
        <ele>43.8773</ele>
        <time>2012-09-11T20:40:19Z</time>
      </trkpt>
      <trkpt lat="59.9744118" lon="17.7350764">
        <ele>44.8386</ele>
        <time>2012-09-11T20:40:25Z</time>
      </trkpt>
      <trkpt lat="59.9744092" lon="17.7353712">
        <ele>40.9934</ele>
        <time>2012-09-11T20:40:31Z</time>
      </trkpt>
      <trkpt lat="59.9744253" lon="17.7356509">
        <ele>39.5513</ele>
        <time>2012-09-11T20:40:37Z</time>
      </trkpt>
      <trkpt lat="59.9744439" lon="17.7358893">
        <ele>38.5901</ele>
        <time>2012-09-11T20:40:42Z</time>
      </trkpt>
      <trkpt lat="59.9744848" lon="17.7360884">
        <ele>39.0707</ele>
        <time>2012-09-11T20:40:47Z</time>
      </trkpt>
      <trkpt lat="59.9745367" lon="17.7363389">
        <ele>38.1094</ele>
        <time>2012-09-11T20:40:53Z</time>
      </trkpt>
      <trkpt lat="59.9745867" lon="17.73659">
        <ele>37.1481</ele>
        <time>2012-09-11T20:40:59Z</time>
      </trkpt>
      <trkpt lat="59.9746526" lon="17.7368265">
        <ele>35.2255</ele>
        <time>2012-09-11T20:41:05Z</time>
      </trkpt>
      <trkpt lat="59.9747118" lon="17.7370098">
        <ele>34.2642</ele>
        <time>2012-09-11T20:41:10Z</time>
      </trkpt>
      <trkpt lat="59.9747905" lon="17.7372318">
        <ele>32.8223</ele>
        <time>2012-09-11T20:41:16Z</time>
      </trkpt>
      <trkpt lat="59.9748755" lon="17.7374346">
        <ele>31.8607</ele>
        <time>2012-09-11T20:41:22Z</time>
      </trkpt>
      <trkpt lat="59.9749598" lon="17.7375967">
        <ele>32.3416</ele>
        <time>2012-09-11T20:41:27Z</time>
      </trkpt>
      <trkpt lat="59.9750482" lon="17.7377633">
        <ele>32.3416</ele>
        <time>2012-09-11T20:41:32Z</time>
      </trkpt>
      <trkpt lat="59.9751474" lon="17.7379156">
        <ele>33.3029</ele>
        <time>2012-09-11T20:41:37Z</time>
      </trkpt>
      <trkpt lat="59.9752882" lon="17.7381292">
        <ele>33.7834</ele>
        <time>2012-09-11T20:41:44Z</time>
      </trkpt>
      <trkpt lat="59.9754063" lon="17.7383218">
        <ele>32.8223</ele>
        <time>2012-09-11T20:41:50Z</time>
      </trkpt>
      <trkpt lat="59.9755224" lon="17.7384978">
        <ele>32.8223</ele>
        <time>2012-09-11T20:41:56Z</time>
      </trkpt>
      <trkpt lat="59.975627" lon="17.7386603">
        <ele>32.8223</ele>
        <time>2012-09-11T20:42:01Z</time>
      </trkpt>
      <trkpt lat="59.9757351" lon="17.7388744">
        <ele>30.4188</ele>
        <time>2012-09-11T20:42:07Z</time>
      </trkpt>
      <trkpt lat="59.9758311" lon="17.7390527">
        <ele>30.8995</ele>
        <time>2012-09-11T20:42:12Z</time>
      </trkpt>
      <trkpt lat="59.9759275" lon="17.7392377">
        <ele>29.4575</ele>
        <time>2012-09-11T20:42:18Z</time>
      </trkpt>
      <trkpt lat="59.9760162" lon="17.7394095">
        <ele>29.4575</ele>
        <time>2012-09-11T20:42:23Z</time>
      </trkpt>
      <trkpt lat="59.9760881" lon="17.739579">
        <ele>27.0543</ele>
        <time>2012-09-11T20:42:28Z</time>
      </trkpt>
      <trkpt lat="59.976176" lon="17.7397346">
        <ele>27.0543</ele>
        <time>2012-09-11T20:42:33Z</time>
      </trkpt>
      <trkpt lat="59.9762445" lon="17.73983">
        <ele>26.5736</ele>
        <time>2012-09-11T20:42:37Z</time>
      </trkpt>
      <trkpt lat="59.9763517" lon="17.7398162">
        <ele>27.5349</ele>
        <time>2012-09-11T20:42:42Z</time>
      </trkpt>
      <trkpt lat="59.9764647" lon="17.7396978">
        <ele>28.9769</ele>
        <time>2012-09-11T20:42:47Z</time>
      </trkpt>
      <trkpt lat="59.9765829" lon="17.7395765">
        <ele>29.9381</ele>
        <time>2012-09-11T20:42:52Z</time>
      </trkpt>
      <trkpt lat="59.9767101" lon="17.7394977">
        <ele>30.4188</ele>
        <time>2012-09-11T20:42:57Z</time>
      </trkpt>
      <trkpt lat="59.9768293" lon="17.7394356">
        <ele>30.4188</ele>
        <time>2012-09-11T20:43:02Z</time>
      </trkpt>
      <trkpt lat="59.9769822" lon="17.7393451">
        <ele>30.8995</ele>
        <time>2012-09-11T20:43:09Z</time>
      </trkpt>
      <trkpt lat="59.9771225" lon="17.7392824">
        <ele>32.3416</ele>
        <time>2012-09-11T20:43:15Z</time>
      </trkpt>
      <trkpt lat="59.9772384" lon="17.7391983">
        <ele>32.3416</ele>
        <time>2012-09-11T20:43:20Z</time>
      </trkpt>
      <trkpt lat="59.9773524" lon="17.7391365">
        <ele>32.3416</ele>
        <time>2012-09-11T20:43:25Z</time>
      </trkpt>
      <trkpt lat="59.9774593" lon="17.7391144">
        <ele>32.8223</ele>
        <time>2012-09-11T20:43:29Z</time>
      </trkpt>
      <trkpt lat="59.9776208" lon="17.7390599">
        <ele>32.8223</ele>
        <time>2012-09-11T20:43:35Z</time>
      </trkpt>
      <trkpt lat="59.9777462" lon="17.7390172">
        <ele>32.3416</ele>
        <time>2012-09-11T20:43:40Z</time>
      </trkpt>
      <trkpt lat="59.9778814" lon="17.7389903">
        <ele>34.2642</ele>
        <time>2012-09-11T20:43:46Z</time>
      </trkpt>
      <trkpt lat="59.9779886" lon="17.7390563">
        <ele>34.2642</ele>
        <time>2012-09-11T20:43:51Z</time>
      </trkpt>
      <trkpt lat="59.9781099" lon="17.739117">
        <ele>35.2255</ele>
        <time>2012-09-11T20:43:57Z</time>
      </trkpt>
      <trkpt lat="59.9782228" lon="17.7391562">
        <ele>36.1868</ele>
        <time>2012-09-11T20:44:02Z</time>
      </trkpt>
      <trkpt lat="59.9784116" lon="17.7391843">
        <ele>37.6287</ele>
        <time>2012-09-11T20:44:10Z</time>
      </trkpt>
      <trkpt lat="59.9785564" lon="17.7392285">
        <ele>38.5901</ele>
        <time>2012-09-11T20:44:16Z</time>
      </trkpt>
      <trkpt lat="59.9787163" lon="17.7392866">
        <ele>39.5513</ele>
        <time>2012-09-11T20:44:22Z</time>
      </trkpt>
      <trkpt lat="59.9788738" lon="17.7393196">
        <ele>40.9934</ele>
        <time>2012-09-11T20:44:28Z</time>
      </trkpt>
      <trkpt lat="59.9789423" lon="17.7394034">
        <ele>41.474</ele>
        <time>2012-09-11T20:44:31Z</time>
      </trkpt>
    </trkseg>
  </trk>
</gpx>